sensor_id;sensor_type;location;lat;lon;timestamp;temperature;humidity
9219;DHT22;4644;48.858;9.184;2023-12-20T00:00:21;5.70;99.90
9219;DHT22;4644;48.858;9.184;2023-12-20T00:02:48;5.80;99.90
9219;DHT22;4644;48.858;9.184;2023-12-20T00:05:15;5.80;99.90
9219;DHT22;4644;48.858;9.184;2023-12-20T00:07:43;5.80;99.90
9219;DHT22;4644;48.858;9.184;2023-12-20T00:10:10;5.80;99.90
9219;DHT22;4644;48.858;9.184;2023-12-20T00:12:38;5.80;99.90
9219;DHT22;4644;48.858;9.184;2023-12-20T00:15:08;5.80;99.90
9219;DHT22;4644;48.858;9.184;2023-12-20T00:17:35;5.80;99.90
9219;DHT22;4644;48.858;9.184;2023-12-20T00:20:02;5.80;99.90
9219;DHT22;4644;48.858;9.184;2023-12-20T00:22:31;5.70;99.90
9219;DHT22;4644;48.858;9.184;2023-12-20T00:24:58;5.70;99.90
9219;DHT22;4644;48.858;9.184;2023-12-20T00:27:24;5.60;99.90
9219;DHT22;4644;48.858;9.184;2023-12-20T00:29:51;5.60;99.90
9219;DHT22;4644;48.858;9.184;2023-12-20T00:32:20;5.60;99.90
9219;DHT22;4644;48.858;9.184;2023-12-20T00:34:46;5.60;99.90
9219;DHT22;4644;48.858;9.184;2023-12-20T00:37:13;5.60;99.90
9219;DHT22;4644;48.858;9.184;2023-12-20T00:39:40;5.60;99.90
9219;DHT22;4644;48.858;9.184;2023-12-20T00:42:07;5.50;99.90
9219;DHT22;4644;48.858;9.184;2023-12-20T00:44:34;5.60;99.90
9219;DHT22;4644;48.858;9.184;2023-12-20T00:47:01;5.50;99.90
9219;DHT22;4644;48.858;9.184;2023-12-20T00:49:29;5.50;99.90
9219;DHT22;4644;48.858;9.184;2023-12-20T00:51:56;5.40;99.90
9219;DHT22;4644;48.858;9.184;2023-12-20T00:54:22;5.40;99.90
9219;DHT22;4644;48.858;9.184;2023-12-20T00:56:49;5.40;99.90
9219;DHT22;4644;48.858;9.184;2023-12-20T00:59:16;5.40;99.90
9219;DHT22;4644;48.858;9.184;2023-12-20T01:01:44;5.40;99.90
9219;DHT22;4644;48.858;9.184;2023-12-20T01:04:11;5.40;99.90
9219;DHT22;4644;48.858;9.184;2023-12-20T01:06:38;5.40;99.90
9219;DHT22;4644;48.858;9.184;2023-12-20T01:09:05;5.40;99.90
9219;DHT22;4644;48.858;9.184;2023-12-20T01:11:32;5.40;99.90
9219;DHT22;4644;48.858;9.184;2023-12-20T01:13:59;5.40;99.90
9219;DHT22;4644;48.858;9.184;2023-12-20T01:16:26;5.30;99.90
9219;DHT22;4644;48.858;9.184;2023-12-20T01:18:52;5.30;99.90
9219;DHT22;4644;48.858;9.184;2023-12-20T01:21:19;5.30;99.90
9219;DHT22;4644;48.858;9.184;2023-12-20T01:23:47;5.30;99.90
9219;DHT22;4644;48.858;9.184;2023-12-20T01:26:15;5.20;99.90
9219;DHT22;4644;48.858;9.184;2023-12-20T01:28:42;5.20;99.90
9219;DHT22;4644;48.858;9.184;2023-12-20T01:31:09;5.20;99.90
9219;DHT22;4644;48.858;9.184;2023-12-20T01:33:35;5.20;99.90
9219;DHT22;4644;48.858;9.184;2023-12-20T01:36:03;5.20;99.90
9219;DHT22;4644;48.858;9.184;2023-12-20T01:38:30;5.10;99.90
9219;DHT22;4644;48.858;9.184;2023-12-20T01:40:59;5.10;99.90
9219;DHT22;4644;48.858;9.184;2023-12-20T01:43:26;5.10;99.90
9219;DHT22;4644;48.858;9.184;2023-12-20T01:45:53;5.10;99.90
9219;DHT22;4644;48.858;9.184;2023-12-20T01:48:21;5.10;99.90
9219;DHT22;4644;48.858;9.184;2023-12-20T01:50:49;5.10;99.90
9219;DHT22;4644;48.858;9.184;2023-12-20T01:53:16;5.00;99.90
9219;DHT22;4644;48.858;9.184;2023-12-20T01:55:44;5.00;99.90
9219;DHT22;4644;48.858;9.184;2023-12-20T01:58:12;5.00;99.90
9219;DHT22;4644;48.858;9.184;2023-12-20T02:00:40;5.10;99.90
9219;DHT22;4644;48.858;9.184;2023-12-20T02:03:07;5.00;99.90
9219;DHT22;4644;48.858;9.184;2023-12-20T02:05:35;5.10;99.90
9219;DHT22;4644;48.858;9.184;2023-12-20T02:08:02;5.10;99.90
9219;DHT22;4644;48.858;9.184;2023-12-20T02:10:30;5.10;99.90
9219;DHT22;4644;48.858;9.184;2023-12-20T02:12:56;5.00;99.90
9219;DHT22;4644;48.858;9.184;2023-12-20T02:15:25;5.00;99.90
9219;DHT22;4644;48.858;9.184;2023-12-20T02:17:52;5.00;99.90
9219;DHT22;4644;48.858;9.184;2023-12-20T02:20:20;5.00;99.90
9219;DHT22;4644;48.858;9.184;2023-12-20T02:22:48;5.10;99.90
9219;DHT22;4644;48.858;9.184;2023-12-20T02:25:15;5.10;99.90
9219;DHT22;4644;48.858;9.184;2023-12-20T02:27:42;5.00;99.90
9219;DHT22;4644;48.858;9.184;2023-12-20T02:30:11;5.00;99.90
9219;DHT22;4644;48.858;9.184;2023-12-20T02:32:38;5.00;99.90
9219;DHT22;4644;48.858;9.184;2023-12-20T02:35:05;5.10;99.90
9219;DHT22;4644;48.858;9.184;2023-12-20T02:37:32;5.10;99.90
9219;DHT22;4644;48.858;9.184;2023-12-20T02:40:01;5.10;99.90
9219;DHT22;4644;48.858;9.184;2023-12-20T02:42:28;5.10;99.90
9219;DHT22;4644;48.858;9.184;2023-12-20T02:44:55;5.10;99.90
9219;DHT22;4644;48.858;9.184;2023-12-20T02:47:22;5.10;99.90
9219;DHT22;4644;48.858;9.184;2023-12-20T02:49:49;5.10;99.90
9219;DHT22;4644;48.858;9.184;2023-12-20T02:52:16;5.10;99.90
9219;DHT22;4644;48.858;9.184;2023-12-20T02:54:43;5.20;99.90
9219;DHT22;4644;48.858;9.184;2023-12-20T02:57:11;5.20;99.90
9219;DHT22;4644;48.858;9.184;2023-12-20T02:59:38;5.30;99.90
9219;DHT22;4644;48.858;9.184;2023-12-20T03:02:05;5.30;99.90
9219;DHT22;4644;48.858;9.184;2023-12-20T03:04:32;5.30;99.90
9219;DHT22;4644;48.858;9.184;2023-12-20T03:06:58;5.30;99.90
9219;DHT22;4644;48.858;9.184;2023-12-20T03:09:25;5.30;99.90
9219;DHT22;4644;48.858;9.184;2023-12-20T03:11:52;5.30;99.90
9219;DHT22;4644;48.858;9.184;2023-12-20T03:14:21;5.20;99.90
9219;DHT22;4644;48.858;9.184;2023-12-20T03:16:48;5.20;99.90
9219;DHT22;4644;48.858;9.184;2023-12-20T03:19:15;5.20;99.90
9219;DHT22;4644;48.858;9.184;2023-12-20T03:21:42;5.20;99.90
9219;DHT22;4644;48.858;9.184;2023-12-20T03:24:09;5.20;99.90
9219;DHT22;4644;48.858;9.184;2023-12-20T03:26:36;5.10;99.90
9219;DHT22;4644;48.858;9.184;2023-12-20T03:29:03;5.10;99.90
9219;DHT22;4644;48.858;9.184;2023-12-20T03:31:31;5.10;99.90
9219;DHT22;4644;48.858;9.184;2023-12-20T03:33:58;5.10;99.90
9219;DHT22;4644;48.858;9.184;2023-12-20T03:36:25;5.00;99.90
9219;DHT22;4644;48.858;9.184;2023-12-20T03:38:52;5.00;99.90
9219;DHT22;4644;48.858;9.184;2023-12-20T03:41:19;5.00;99.90
9219;DHT22;4644;48.858;9.184;2023-12-20T03:43:45;4.90;99.90
9219;DHT22;4644;48.858;9.184;2023-12-20T03:46:12;4.90;99.90
9219;DHT22;4644;48.858;9.184;2023-12-20T03:48:40;4.90;99.90
9219;DHT22;4644;48.858;9.184;2023-12-20T03:51:07;4.90;99.90
9219;DHT22;4644;48.858;9.184;2023-12-20T03:53:34;4.80;99.90
9219;DHT22;4644;48.858;9.184;2023-12-20T03:56:01;4.90;99.90
9219;DHT22;4644;48.858;9.184;2023-12-20T03:58:28;4.90;99.90
9219;DHT22;4644;48.858;9.184;2023-12-20T04:00:55;4.80;99.90
9219;DHT22;4644;48.858;9.184;2023-12-20T04:03:21;4.80;99.90
9219;DHT22;4644;48.858;9.184;2023-12-20T04:05:50;4.80;99.90
9219;DHT22;4644;48.858;9.184;2023-12-20T04:08:16;4.80;99.90
9219;DHT22;4644;48.858;9.184;2023-12-20T04:10:43;4.70;99.90
9219;DHT22;4644;48.858;9.184;2023-12-20T04:13:10;4.80;99.90
9219;DHT22;4644;48.858;9.184;2023-12-20T04:15:37;4.80;99.90
9219;DHT22;4644;48.858;9.184;2023-12-20T04:18:04;4.70;99.90
9219;DHT22;4644;48.858;9.184;2023-12-20T04:20:31;4.70;99.90
9219;DHT22;4644;48.858;9.184;2023-12-20T04:22:58;4.70;99.90
9219;DHT22;4644;48.858;9.184;2023-12-20T04:25:25;4.70;99.90
9219;DHT22;4644;48.858;9.184;2023-12-20T04:27:52;4.70;99.90
9219;DHT22;4644;48.858;9.184;2023-12-20T04:30:19;4.70;99.90
9219;DHT22;4644;48.858;9.184;2023-12-20T04:32:45;4.70;99.90
9219;DHT22;4644;48.858;9.184;2023-12-20T04:35:12;4.70;99.90
9219;DHT22;4644;48.858;9.184;2023-12-20T04:37:39;4.70;99.90
9219;DHT22;4644;48.858;9.184;2023-12-20T04:40:08;4.70;99.90
9219;DHT22;4644;48.858;9.184;2023-12-20T04:42:35;4.70;99.90
9219;DHT22;4644;48.858;9.184;2023-12-20T04:45:02;4.60;99.90
9219;DHT22;4644;48.858;9.184;2023-12-20T04:47:29;4.60;99.90
9219;DHT22;4644;48.858;9.184;2023-12-20T04:49:55;4.60;99.90
9219;DHT22;4644;48.858;9.184;2023-12-20T04:52:23;4.60;99.90
9219;DHT22;4644;48.858;9.184;2023-12-20T04:54:49;4.70;99.90
9219;DHT22;4644;48.858;9.184;2023-12-20T04:57:18;4.70;99.90
9219;DHT22;4644;48.858;9.184;2023-12-20T04:59:45;4.70;99.90
9219;DHT22;4644;48.858;9.184;2023-12-20T05:02:11;4.70;99.90
9219;DHT22;4644;48.858;9.184;2023-12-20T05:04:38;4.70;99.90
9219;DHT22;4644;48.858;9.184;2023-12-20T05:07:05;4.70;99.90
9219;DHT22;4644;48.858;9.184;2023-12-20T05:09:32;4.70;99.90
9219;DHT22;4644;48.858;9.184;2023-12-20T05:11:59;4.70;99.90
9219;DHT22;4644;48.858;9.184;2023-12-20T05:14:27;4.70;99.90
9219;DHT22;4644;48.858;9.184;2023-12-20T05:16:54;4.80;99.90
9219;DHT22;4644;48.858;9.184;2023-12-20T05:19:22;4.80;99.90
9219;DHT22;4644;48.858;9.184;2023-12-20T05:21:49;4.80;99.90
9219;DHT22;4644;48.858;9.184;2023-12-20T05:24:16;4.80;99.90
9219;DHT22;4644;48.858;9.184;2023-12-20T05:26:43;4.80;99.90
9219;DHT22;4644;48.858;9.184;2023-12-20T05:29:10;4.80;99.90
9219;DHT22;4644;48.858;9.184;2023-12-20T05:31:38;4.80;99.90
9219;DHT22;4644;48.858;9.184;2023-12-20T05:34:05;4.80;99.90
9219;DHT22;4644;48.858;9.184;2023-12-20T05:36:32;4.90;99.90
9219;DHT22;4644;48.858;9.184;2023-12-20T05:38:59;4.90;99.90
9219;DHT22;4644;48.858;9.184;2023-12-20T05:41:25;4.90;99.90
9219;DHT22;4644;48.858;9.184;2023-12-20T05:43:52;4.90;99.90
9219;DHT22;4644;48.858;9.184;2023-12-20T05:46:19;4.90;99.90
9219;DHT22;4644;48.858;9.184;2023-12-20T05:48:48;4.90;99.90
9219;DHT22;4644;48.858;9.184;2023-12-20T05:51:15;4.90;99.90
9219;DHT22;4644;48.858;9.184;2023-12-20T05:53:42;4.90;99.90
9219;DHT22;4644;48.858;9.184;2023-12-20T05:56:09;4.90;99.90
9219;DHT22;4644;48.858;9.184;2023-12-20T05:58:36;4.90;99.90
9219;DHT22;4644;48.858;9.184;2023-12-20T06:01:04;5.00;99.90
9219;DHT22;4644;48.858;9.184;2023-12-20T06:03:31;4.90;99.90
9219;DHT22;4644;48.858;9.184;2023-12-20T06:05:59;4.90;99.90
9219;DHT22;4644;48.858;9.184;2023-12-20T06:08:30;4.90;99.90
9219;DHT22;4644;48.858;9.184;2023-12-20T06:10:57;5.00;99.90
9219;DHT22;4644;48.858;9.184;2023-12-20T06:13:24;5.00;99.90
9219;DHT22;4644;48.858;9.184;2023-12-20T06:15:51;5.00;99.90
9219;DHT22;4644;48.858;9.184;2023-12-20T06:18:18;5.00;99.90
9219;DHT22;4644;48.858;9.184;2023-12-20T06:20:45;5.00;99.90
9219;DHT22;4644;48.858;9.184;2023-12-20T06:23:13;5.00;99.90
9219;DHT22;4644;48.858;9.184;2023-12-20T06:25:40;5.00;99.90
9219;DHT22;4644;48.858;9.184;2023-12-20T06:28:07;5.00;99.90
9219;DHT22;4644;48.858;9.184;2023-12-20T06:30:35;5.00;99.90
9219;DHT22;4644;48.858;9.184;2023-12-20T06:33:03;5.00;99.90
9219;DHT22;4644;48.858;9.184;2023-12-20T06:35:30;5.00;99.90
9219;DHT22;4644;48.858;9.184;2023-12-20T06:37:56;5.00;99.90
9219;DHT22;4644;48.858;9.184;2023-12-20T06:40:25;5.00;99.90
9219;DHT22;4644;48.858;9.184;2023-12-20T06:42:52;5.00;99.90
9219;DHT22;4644;48.858;9.184;2023-12-20T06:45:18;5.00;99.90
9219;DHT22;4644;48.858;9.184;2023-12-20T06:47:45;5.00;99.90
9219;DHT22;4644;48.858;9.184;2023-12-20T06:50:12;5.00;99.90
9219;DHT22;4644;48.858;9.184;2023-12-20T06:52:40;5.00;99.90
9219;DHT22;4644;48.858;9.184;2023-12-20T06:55:07;5.00;99.90
9219;DHT22;4644;48.858;9.184;2023-12-20T06:57:35;5.10;99.90
9219;DHT22;4644;48.858;9.184;2023-12-20T07:00:03;5.10;99.90
9219;DHT22;4644;48.858;9.184;2023-12-20T07:02:31;5.10;99.90
9219;DHT22;4644;48.858;9.184;2023-12-20T07:04:58;5.10;99.90
9219;DHT22;4644;48.858;9.184;2023-12-20T07:07:24;5.10;99.90
9219;DHT22;4644;48.858;9.184;2023-12-20T07:09:51;5.10;99.90
9219;DHT22;4644;48.858;9.184;2023-12-20T07:12:18;5.10;99.90
9219;DHT22;4644;48.858;9.184;2023-12-20T07:14:47;5.10;99.90
9219;DHT22;4644;48.858;9.184;2023-12-20T07:17:14;5.10;99.90
9219;DHT22;4644;48.858;9.184;2023-12-20T07:19:41;5.10;99.90
9219;DHT22;4644;48.858;9.184;2023-12-20T07:22:08;5.10;99.90
9219;DHT22;4644;48.858;9.184;2023-12-20T07:24:35;5.10;99.90
9219;DHT22;4644;48.858;9.184;2023-12-20T07:27:02;5.10;99.90
9219;DHT22;4644;48.858;9.184;2023-12-20T07:29:29;5.10;99.90
9219;DHT22;4644;48.858;9.184;2023-12-20T07:31:57;5.10;99.90
9219;DHT22;4644;48.858;9.184;2023-12-20T07:34:24;5.10;99.90
9219;DHT22;4644;48.858;9.184;2023-12-20T07:36:51;5.00;99.90
9219;DHT22;4644;48.858;9.184;2023-12-20T07:39:18;5.00;99.90
9219;DHT22;4644;48.858;9.184;2023-12-20T07:41:45;5.00;99.90
9219;DHT22;4644;48.858;9.184;2023-12-20T07:44:12;4.90;99.90
9219;DHT22;4644;48.858;9.184;2023-12-20T07:46:39;4.90;99.90
9219;DHT22;4644;48.858;9.184;2023-12-20T07:49:07;4.90;99.90
9219;DHT22;4644;48.858;9.184;2023-12-20T07:51:35;4.90;99.90
9219;DHT22;4644;48.858;9.184;2023-12-20T07:54:02;4.80;99.90
9219;DHT22;4644;48.858;9.184;2023-12-20T07:56:30;4.70;99.90
9219;DHT22;4644;48.858;9.184;2023-12-20T07:58:57;4.70;99.90
9219;DHT22;4644;48.858;9.184;2023-12-20T08:01:23;4.70;99.90
9219;DHT22;4644;48.858;9.184;2023-12-20T08:03:50;4.70;99.90
9219;DHT22;4644;48.858;9.184;2023-12-20T08:06:18;4.60;99.90
9219;DHT22;4644;48.858;9.184;2023-12-20T08:08:45;4.60;99.90
9219;DHT22;4644;48.858;9.184;2023-12-20T08:11:12;4.60;99.90
9219;DHT22;4644;48.858;9.184;2023-12-20T08:13:39;4.50;99.90
9219;DHT22;4644;48.858;9.184;2023-12-20T08:16:06;4.50;99.90
9219;DHT22;4644;48.858;9.184;2023-12-20T08:18:33;4.50;99.90
9219;DHT22;4644;48.858;9.184;2023-12-20T08:21:00;4.50;99.90
9219;DHT22;4644;48.858;9.184;2023-12-20T08:23:29;4.50;99.90
9219;DHT22;4644;48.858;9.184;2023-12-20T08:25:56;4.50;99.90
9219;DHT22;4644;48.858;9.184;2023-12-20T08:28:22;4.50;99.90
9219;DHT22;4644;48.858;9.184;2023-12-20T08:30:49;4.60;99.90
9219;DHT22;4644;48.858;9.184;2023-12-20T08:33:19;4.50;99.90
9219;DHT22;4644;48.858;9.184;2023-12-20T08:35:46;4.60;99.90
9219;DHT22;4644;48.858;9.184;2023-12-20T08:38:12;4.50;99.90
9219;DHT22;4644;48.858;9.184;2023-12-20T08:40:41;4.50;99.90
9219;DHT22;4644;48.858;9.184;2023-12-20T08:43:08;4.60;99.90
9219;DHT22;4644;48.858;9.184;2023-12-20T08:45:35;4.60;99.90
9219;DHT22;4644;48.858;9.184;2023-12-20T08:48:02;4.60;99.90
9219;DHT22;4644;48.858;9.184;2023-12-20T08:50:29;4.70;99.90
9219;DHT22;4644;48.858;9.184;2023-12-20T08:52:56;4.70;99.90
9219;DHT22;4644;48.858;9.184;2023-12-20T08:55:23;4.70;99.90
9219;DHT22;4644;48.858;9.184;2023-12-20T08:57:51;4.80;99.90
9219;DHT22;4644;48.858;9.184;2023-12-20T09:00:18;4.80;99.90
9219;DHT22;4644;48.858;9.184;2023-12-20T09:02:46;4.80;99.90
9219;DHT22;4644;48.858;9.184;2023-12-20T09:05:13;4.90;99.90
9219;DHT22;4644;48.858;9.184;2023-12-20T09:07:40;4.90;99.90
9219;DHT22;4644;48.858;9.184;2023-12-20T09:10:07;4.90;99.90
9219;DHT22;4644;48.858;9.184;2023-12-20T09:12:34;5.00;99.90
9219;DHT22;4644;48.858;9.184;2023-12-20T09:15:05;5.00;99.90
9219;DHT22;4644;48.858;9.184;2023-12-20T09:17:32;5.10;99.90
9219;DHT22;4644;48.858;9.184;2023-12-20T09:19:59;5.10;99.90
9219;DHT22;4644;48.858;9.184;2023-12-20T09:22:26;5.10;99.90
9219;DHT22;4644;48.858;9.184;2023-12-20T09:24:53;5.20;99.90
9219;DHT22;4644;48.858;9.184;2023-12-20T09:27:20;5.20;99.90
9219;DHT22;4644;48.858;9.184;2023-12-20T09:29:47;5.30;99.90
9219;DHT22;4644;48.858;9.184;2023-12-20T09:32:15;5.40;99.90
9219;DHT22;4644;48.858;9.184;2023-12-20T09:34:42;5.40;99.90
9219;DHT22;4644;48.858;9.184;2023-12-20T09:37:12;5.40;99.90
9219;DHT22;4644;48.858;9.184;2023-12-20T09:39:39;5.50;99.90
9219;DHT22;4644;48.858;9.184;2023-12-20T09:42:06;5.50;99.90
9219;DHT22;4644;48.858;9.184;2023-12-20T09:44:33;5.60;99.90
9219;DHT22;4644;48.858;9.184;2023-12-20T09:47:02;5.70;99.90
9219;DHT22;4644;48.858;9.184;2023-12-20T09:52:53;5.90;99.90
9219;DHT22;4644;48.858;9.184;2023-12-20T09:55:21;6.00;99.90
9219;DHT22;4644;48.858;9.184;2023-12-20T09:57:49;6.00;99.90
9219;DHT22;4644;48.858;9.184;2023-12-20T10:00:16;6.10;99.90
9219;DHT22;4644;48.858;9.184;2023-12-20T10:02:50;6.10;99.90
9219;DHT22;4644;48.858;9.184;2023-12-20T10:05:17;6.10;99.90
9219;DHT22;4644;48.858;9.184;2023-12-20T10:07:45;6.10;99.90
9219;DHT22;4644;48.858;9.184;2023-12-20T10:10:14;6.10;99.90
9219;DHT22;4644;48.858;9.184;2023-12-20T10:13:01;6.00;99.90
9219;DHT22;4644;48.858;9.184;2023-12-20T10:15:28;6.10;99.90
9219;DHT22;4644;48.858;9.184;2023-12-20T10:17:56;6.10;99.90
9219;DHT22;4644;48.858;9.184;2023-12-20T10:20:23;6.10;99.90
9219;DHT22;4644;48.858;9.184;2023-12-20T10:22:50;6.10;99.90
9219;DHT22;4644;48.858;9.184;2023-12-20T10:25:20;6.10;99.90
9219;DHT22;4644;48.858;9.184;2023-12-20T10:27:47;6.10;99.90
9219;DHT22;4644;48.858;9.184;2023-12-20T10:30:14;6.10;99.90
9219;DHT22;4644;48.858;9.184;2023-12-20T10:32:41;6.10;99.90
9219;DHT22;4644;48.858;9.184;2023-12-20T10:35:09;6.10;99.90
9219;DHT22;4644;48.858;9.184;2023-12-20T10:37:36;6.00;99.90
9219;DHT22;4644;48.858;9.184;2023-12-20T10:40:04;5.90;99.90
9219;DHT22;4644;48.858;9.184;2023-12-20T10:42:33;5.70;99.90
9219;DHT22;4644;48.858;9.184;2023-12-20T10:45:01;5.70;99.90
9219;DHT22;4644;48.858;9.184;2023-12-20T10:47:30;5.90;99.90
9219;DHT22;4644;48.858;9.184;2023-12-20T10:49:59;6.10;99.90
9219;DHT22;4644;48.858;9.184;2023-12-20T10:52:28;6.10;99.90
9219;DHT22;4644;48.858;9.184;2023-12-20T10:54:56;6.30;99.90
9219;DHT22;4644;48.858;9.184;2023-12-20T10:57:23;6.40;99.90
9219;DHT22;4644;48.858;9.184;2023-12-20T10:59:54;6.40;99.90
9219;DHT22;4644;48.858;9.184;2023-12-20T11:02:22;6.40;99.90
9219;DHT22;4644;48.858;9.184;2023-12-20T11:04:55;6.50;99.90
9219;DHT22;4644;48.858;9.184;2023-12-20T11:07:28;6.60;99.90
9219;DHT22;4644;48.858;9.184;2023-12-20T11:10:14;6.70;99.90
9219;DHT22;4644;48.858;9.184;2023-12-20T11:12:48;6.80;99.90
9219;DHT22;4644;48.858;9.184;2023-12-20T11:15:20;6.80;99.90
9219;DHT22;4644;48.858;9.184;2023-12-20T11:17:54;6.70;99.90
9219;DHT22;4644;48.858;9.184;2023-12-20T11:20:23;6.50;99.90
9219;DHT22;4644;48.858;9.184;2023-12-20T11:22:54;6.40;99.90
9219;DHT22;4644;48.858;9.184;2023-12-20T11:25:21;6.30;99.90
9219;DHT22;4644;48.858;9.184;2023-12-20T11:28:07;6.30;99.90
9219;DHT22;4644;48.858;9.184;2023-12-20T11:30:42;6.30;99.90
9219;DHT22;4644;48.858;9.184;2023-12-20T11:33:13;6.20;99.90
9219;DHT22;4644;48.858;9.184;2023-12-20T11:35:40;6.20;99.90
9219;DHT22;4644;48.858;9.184;2023-12-20T11:38:08;6.00;99.90
9219;DHT22;4644;48.858;9.184;2023-12-20T11:40:35;6.00;99.90
9219;DHT22;4644;48.858;9.184;2023-12-20T11:43:03;6.00;99.90
9219;DHT22;4644;48.858;9.184;2023-12-20T11:45:30;5.90;99.90
9219;DHT22;4644;48.858;9.184;2023-12-20T11:47:59;5.90;99.90
9219;DHT22;4644;48.858;9.184;2023-12-20T11:50:25;5.80;99.90
9219;DHT22;4644;48.858;9.184;2023-12-20T11:52:54;5.80;99.90
9219;DHT22;4644;48.858;9.184;2023-12-20T11:55:22;5.80;99.90
9219;DHT22;4644;48.858;9.184;2023-12-20T11:57:50;5.70;99.90
9219;DHT22;4644;48.858;9.184;2023-12-20T12:00:18;5.70;99.90
9219;DHT22;4644;48.858;9.184;2023-12-20T12:02:55;5.70;99.90
9219;DHT22;4644;48.858;9.184;2023-12-20T12:05:23;5.70;99.90
9219;DHT22;4644;48.858;9.184;2023-12-20T12:07:51;5.80;99.90
9219;DHT22;4644;48.858;9.184;2023-12-20T12:10:18;5.90;99.90
9219;DHT22;4644;48.858;9.184;2023-12-20T12:12:45;5.90;99.90
9219;DHT22;4644;48.858;9.184;2023-12-20T12:15:12;5.90;99.90
9219;DHT22;4644;48.858;9.184;2023-12-20T12:17:39;5.90;99.90
9219;DHT22;4644;48.858;9.184;2023-12-20T12:20:07;5.90;99.90
9219;DHT22;4644;48.858;9.184;2023-12-20T12:22:36;5.90;99.90
9219;DHT22;4644;48.858;9.184;2023-12-20T12:25:10;6.00;99.90
9219;DHT22;4644;48.858;9.184;2023-12-20T12:27:39;6.00;99.90
9219;DHT22;4644;48.858;9.184;2023-12-20T12:30:06;6.10;99.90
9219;DHT22;4644;48.858;9.184;2023-12-20T12:32:33;6.10;99.90
9219;DHT22;4644;48.858;9.184;2023-12-20T12:35:02;6.10;99.90
9219;DHT22;4644;48.858;9.184;2023-12-20T12:37:29;6.20;99.90
9219;DHT22;4644;48.858;9.184;2023-12-20T12:39:57;6.30;99.90
9219;DHT22;4644;48.858;9.184;2023-12-20T12:42:24;6.40;99.90
9219;DHT22;4644;48.858;9.184;2023-12-20T12:44:54;6.40;99.90
9219;DHT22;4644;48.858;9.184;2023-12-20T12:47:21;6.40;99.90
9219;DHT22;4644;48.858;9.184;2023-12-20T12:49:50;6.40;99.90
9219;DHT22;4644;48.858;9.184;2023-12-20T12:52:17;6.40;99.90
9219;DHT22;4644;48.858;9.184;2023-12-20T12:54:44;6.30;99.90
9219;DHT22;4644;48.858;9.184;2023-12-20T12:57:14;6.20;99.90
9219;DHT22;4644;48.858;9.184;2023-12-20T12:59:41;6.20;99.90
9219;DHT22;4644;48.858;9.184;2023-12-20T13:02:08;6.30;99.90
9219;DHT22;4644;48.858;9.184;2023-12-20T13:04:35;6.20;99.90
9219;DHT22;4644;48.858;9.184;2023-12-20T13:07:01;6.20;99.90
9219;DHT22;4644;48.858;9.184;2023-12-20T13:09:28;6.10;99.90
9219;DHT22;4644;48.858;9.184;2023-12-20T13:11:55;6.10;99.90
9219;DHT22;4644;48.858;9.184;2023-12-20T13:14:23;6.10;99.90
9219;DHT22;4644;48.858;9.184;2023-12-20T13:16:50;6.10;99.90
9219;DHT22;4644;48.858;9.184;2023-12-20T13:19:17;6.20;99.90
9219;DHT22;4644;48.858;9.184;2023-12-20T13:21:44;6.30;99.90
9219;DHT22;4644;48.858;9.184;2023-12-20T13:24:11;6.30;99.90
9219;DHT22;4644;48.858;9.184;2023-12-20T13:26:38;6.30;99.90
9219;DHT22;4644;48.858;9.184;2023-12-20T13:29:05;6.40;99.90
9219;DHT22;4644;48.858;9.184;2023-12-20T13:31:33;6.30;99.90
9219;DHT22;4644;48.858;9.184;2023-12-20T13:34:02;6.40;99.90
9219;DHT22;4644;48.858;9.184;2023-12-20T13:36:28;6.40;99.90
9219;DHT22;4644;48.858;9.184;2023-12-20T13:38:55;6.50;99.90
9219;DHT22;4644;48.858;9.184;2023-12-20T13:41:22;6.50;99.90
9219;DHT22;4644;48.858;9.184;2023-12-20T13:43:49;6.50;99.90
9219;DHT22;4644;48.858;9.184;2023-12-20T13:46:16;6.40;99.90
9219;DHT22;4644;48.858;9.184;2023-12-20T13:48:44;6.50;99.90
9219;DHT22;4644;48.858;9.184;2023-12-20T13:51:11;6.50;99.90
9219;DHT22;4644;48.858;9.184;2023-12-20T13:53:38;6.30;99.90
9219;DHT22;4644;48.858;9.184;2023-12-20T13:56:05;6.20;99.90
9219;DHT22;4644;48.858;9.184;2023-12-20T13:58:32;6.10;99.90
9219;DHT22;4644;48.858;9.184;2023-12-20T14:01:01;6.10;99.90
9219;DHT22;4644;48.858;9.184;2023-12-20T14:03:28;5.90;99.90
9219;DHT22;4644;48.858;9.184;2023-12-20T14:05:56;5.90;99.90
9219;DHT22;4644;48.858;9.184;2023-12-20T14:08:23;5.80;99.90
9219;DHT22;4644;48.858;9.184;2023-12-20T14:10:50;5.80;99.90
9219;DHT22;4644;48.858;9.184;2023-12-20T14:13:16;5.70;99.90
9219;DHT22;4644;48.858;9.184;2023-12-20T14:15:43;5.70;99.90
9219;DHT22;4644;48.858;9.184;2023-12-20T14:18:12;5.70;99.90
9219;DHT22;4644;48.858;9.184;2023-12-20T14:20:40;5.60;99.90
9219;DHT22;4644;48.858;9.184;2023-12-20T14:23:09;5.60;99.90
9219;DHT22;4644;48.858;9.184;2023-12-20T14:25:36;5.50;99.90
9219;DHT22;4644;48.858;9.184;2023-12-20T14:28:04;5.40;99.90
9219;DHT22;4644;48.858;9.184;2023-12-20T14:30:31;5.30;99.90
9219;DHT22;4644;48.858;9.184;2023-12-20T14:32:58;5.30;99.90
9219;DHT22;4644;48.858;9.184;2023-12-20T14:35:25;5.20;99.90
9219;DHT22;4644;48.858;9.184;2023-12-20T14:37:51;5.20;99.90
9219;DHT22;4644;48.858;9.184;2023-12-20T14:40:20;5.20;99.90
9219;DHT22;4644;48.858;9.184;2023-12-20T14:42:46;5.10;99.90
9219;DHT22;4644;48.858;9.184;2023-12-20T14:45:14;5.10;99.90
9219;DHT22;4644;48.858;9.184;2023-12-20T14:47:42;5.20;99.90
9219;DHT22;4644;48.858;9.184;2023-12-20T14:50:09;5.20;99.90
9219;DHT22;4644;48.858;9.184;2023-12-20T14:52:37;5.20;99.90
9219;DHT22;4644;48.858;9.184;2023-12-20T14:55:04;5.20;99.90
9219;DHT22;4644;48.858;9.184;2023-12-20T14:57:32;5.20;99.90
9219;DHT22;4644;48.858;9.184;2023-12-20T14:59:59;5.10;99.90
9219;DHT22;4644;48.858;9.184;2023-12-20T15:02:26;5.00;99.90
9219;DHT22;4644;48.858;9.184;2023-12-20T15:04:53;5.00;99.90
9219;DHT22;4644;48.858;9.184;2023-12-20T15:07:20;4.90;99.90
9219;DHT22;4644;48.858;9.184;2023-12-20T15:09:47;4.90;99.90
9219;DHT22;4644;48.858;9.184;2023-12-20T15:12:14;4.80;99.90
9219;DHT22;4644;48.858;9.184;2023-12-20T15:14:43;4.80;99.90
9219;DHT22;4644;48.858;9.184;2023-12-20T15:17:10;4.70;99.90
9219;DHT22;4644;48.858;9.184;2023-12-20T15:19:37;4.70;99.90
9219;DHT22;4644;48.858;9.184;2023-12-20T15:22:04;4.70;99.90
9219;DHT22;4644;48.858;9.184;2023-12-20T15:24:30;4.70;99.90
9219;DHT22;4644;48.858;9.184;2023-12-20T15:27:04;4.60;99.90
9219;DHT22;4644;48.858;9.184;2023-12-20T15:29:31;4.60;99.90
9219;DHT22;4644;48.858;9.184;2023-12-20T15:31:59;4.60;99.90
9219;DHT22;4644;48.858;9.184;2023-12-20T15:34:26;4.70;99.90
9219;DHT22;4644;48.858;9.184;2023-12-20T15:36:53;4.70;99.90
9219;DHT22;4644;48.858;9.184;2023-12-20T15:39:19;4.70;99.90
9219;DHT22;4644;48.858;9.184;2023-12-20T15:41:46;4.80;99.90
9219;DHT22;4644;48.858;9.184;2023-12-20T15:44:14;4.80;99.90
9219;DHT22;4644;48.858;9.184;2023-12-20T15:46:41;4.90;99.90
9219;DHT22;4644;48.858;9.184;2023-12-20T15:49:10;4.90;99.90
9219;DHT22;4644;48.858;9.184;2023-12-20T15:51:39;4.90;99.90
9219;DHT22;4644;48.858;9.184;2023-12-20T15:54:06;5.00;99.90
9219;DHT22;4644;48.858;9.184;2023-12-20T15:56:33;5.00;99.90
9219;DHT22;4644;48.858;9.184;2023-12-20T15:59:02;5.00;99.90
9219;DHT22;4644;48.858;9.184;2023-12-20T16:01:29;5.10;99.90
9219;DHT22;4644;48.858;9.184;2023-12-20T16:03:56;5.00;99.90
9219;DHT22;4644;48.858;9.184;2023-12-20T16:06:25;5.10;99.90
9219;DHT22;4644;48.858;9.184;2023-12-20T16:08:51;5.10;99.90
9219;DHT22;4644;48.858;9.184;2023-12-20T16:11:18;5.10;99.90
9219;DHT22;4644;48.858;9.184;2023-12-20T16:13:45;5.10;99.90
9219;DHT22;4644;48.858;9.184;2023-12-20T16:16:12;5.10;99.90
9219;DHT22;4644;48.858;9.184;2023-12-20T16:18:39;5.10;99.90
9219;DHT22;4644;48.858;9.184;2023-12-20T16:21:06;5.20;99.90